Terminal Aerodrome Forecast
Issued by NWS

Home | Current Version | Previous Version | Text Only | Print | Product List | Glossary On
Versions: 1 2 3 4 5 6 7 8 9 10 11 12 13 14 15 16 17 18 19 20 21
000
FTUS41 KPBZ 201700
TAFBVI
TAF
KBVI 201724Z 2018/2118 VRB03KT P6SM BKN025 BKN100
      TEMPO 2018/2020 SCT025 BKN100
     FM210900 00000KT P6SM BKN025=

USA.gov is the U.S. government's official web portal to all federal, state and local government web resources and services.